Time;durP1;ratioP1;P1;durP2;ratioP2;P2;SDS_P1;SDS_P2;PMS_P1;PMS_P2;Temp;Humidity;BMP_temperature;BMP_pressure;BME280_temperature;BME280_humidity;BME280_pressure;Samples;Min_cycle;Max_cycle;Signal;HPM_P1;HPM_P2
2024/01/30 00:01:13;;;;;;;8.38;7.00;;;0.60;99.90;;;;;;4949152;28;20027;-61
2024/01/30 00:03:39;;;;;;;7.95;6.93;;;0.60;99.90;;;;;;4948596;28;20566;-62
2024/01/30 00:06:05;;;;;;;8.48;6.55;;;0.70;99.90;;;;;;4942054;28;20035;-63
2024/01/30 00:08:30;;;;;;;7.38;6.57;;;0.70;99.90;;;;;;4944885;28;20566;-63
2024/01/30 00:10:56;;;;;;;8.18;6.43;;;0.70;99.90;;;;;;4948917;28;20038;-63
2024/01/30 00:13:22;;;;;;;8.68;6.35;;;0.70;99.90;;;;;;4947137;28;20039;-63
2024/01/30 00:15:48;;;;;;;10.13;7.10;;;0.70;99.90;;;;;;4946828;28;20070;-62
2024/01/30 00:18:14;;;;;;;11.23;6.97;;;0.70;99.90;;;;;;4951175;28;20482;-62
2024/01/30 00:20:40;;;;;;;9.23;6.93;;;0.70;99.90;;;;;;4949179;28;20487;-62
2024/01/30 00:23:06;;;;;;;7.50;6.72;;;0.70;99.90;;;;;;4950357;28;20091;-62
2024/01/30 00:25:33;;;;;;;11.45;7.70;;;0.70;99.90;;;;;;4949761;28;20031;-63
2024/01/30 00:27:58;;;;;;;8.63;6.22;;;0.60;99.90;;;;;;4953470;28;20454;-62
2024/01/30 00:30:24;;;;;;;9.23;6.53;;;0.60;99.90;;;;;;4948566;28;20039;-62
2024/01/30 00:32:50;;;;;;;11.57;8.45;;;0.60;99.90;;;;;;4945727;28;20488;-62
2024/01/30 00:35:15;;;;;;;12.18;8.80;;;0.50;99.90;;;;;;4947761;28;20042;-63
2024/01/30 00:37:41;;;;;;;16.48;10.82;;;0.50;99.90;;;;;;4948958;28;20075;-63
2024/01/30 00:40:07;;;;;;;25.45;14.60;;;0.50;99.90;;;;;;4944486;28;20039;-63
2024/01/30 00:42:33;;;;;;;17.63;9.80;;;0.50;99.90;;;;;;4948024;28;20035;-61
2024/01/30 00:44:59;;;;;;;25.10;13.85;;;0.50;99.90;;;;;;4946829;28;20035;-62
2024/01/30 00:47:24;;;;;;;53.63;22.85;;;0.50;99.90;;;;;;4943375;28;20031;-62
2024/01/30 00:49:50;;;;;;;47.17;22.00;;;0.40;99.90;;;;;;4950033;28;20032;-62
2024/01/30 00:52:16;;;;;;;31.50;17.95;;;0.40;99.90;;;;;;4946381;28;20027;-61
2024/01/30 00:54:41;;;;;;;13.70;10.18;;;0.40;99.90;;;;;;4947962;28;20372;-62
2024/01/30 00:57:07;;;;;;;11.00;8.70;;;0.40;99.90;;;;;;4950969;28;20041;-60
2024/01/30 00:59:33;;;;;;;12.45;8.88;;;0.40;99.90;;;;;;4937407;29;20054;-62
2024/01/30 01:01:59;;;;;;;12.95;8.55;;;0.30;99.90;;;;;;4948662;28;20061;-62
2024/01/30 01:04:26;;;;;;;15.02;8.88;;;0.30;99.90;;;;;;4944490;28;20487;-62
2024/01/30 01:06:52;;;;;;;17.25;8.10;;;0.30;99.90;;;;;;4945189;28;20044;-61
2024/01/30 01:09:18;;;;;;;12.85;11.07;;;0.30;99.90;;;;;;4944091;28;20540;-62
2024/01/30 01:11:43;;;;;;;11.35;9.15;;;0.30;99.90;;;;;;4948800;28;20027;-62
2024/01/30 01:14:09;;;;;;;14.25;8.93;;;0.30;99.90;;;;;;4946104;28;20094;-63
2024/01/30 01:16:35;;;;;;;15.13;8.50;;;0.30;99.90;;;;;;4950473;28;20024;-62
2024/01/30 01:19:00;;;;;;;10.32;9.23;;;0.20;99.90;;;;;;4948457;28;20126;-62
2024/01/30 01:21:26;;;;;;;12.10;9.48;;;0.30;99.90;;;;;;4947540;28;20046;-63
2024/01/30 01:23:52;;;;;;;13.43;10.52;;;0.30;99.90;;;;;;4945344;28;20046;-60
2024/01/30 01:26:18;;;;;;;27.35;17.20;;;0.30;99.90;;;;;;4947218;28;20039;-62
2024/01/30 01:28:43;;;;;;;17.08;12.25;;;0.30;99.90;;;;;;4945091;28;20513;-62
2024/01/30 01:31:09;;;;;;;13.32;9.40;;;0.30;99.90;;;;;;4940090;28;20040;-61
2024/01/30 01:33:36;;;;;;;10.52;7.80;;;0.20;99.90;;;;;;4938152;28;20036;-61
2024/01/30 01:36:02;;;;;;;18.35;13.30;;;0.20;99.90;;;;;;4943588;28;20051;-62
2024/01/30 01:38:28;;;;;;;15.65;10.82;;;0.20;99.90;;;;;;4946580;28;20126;-62
2024/01/30 01:40:54;;;;;;;17.08;12.77;;;0.30;99.90;;;;;;4944496;28;20027;-61
2024/01/30 01:43:20;;;;;;;16.42;12.98;;;0.30;99.90;;;;;;4946748;28;20027;-62
2024/01/30 01:45:45;;;;;;;8.18;6.88;;;0.30;99.90;;;;;;4947687;28;20037;-61
2024/01/30 01:48:12;;;;;;;14.23;7.95;;;0.30;99.90;;;;;;4945459;28;20103;-62
2024/01/30 01:50:38;;;;;;;9.85;7.35;;;0.30;99.90;;;;;;4946473;28;20035;-63
2024/01/30 01:53:07;;;;;;;10.63;7.97;;;0.20;99.90;;;;;;4945059;28;20024;-63
2024/01/30 01:55:35;;;;;;;16.40;7.32;;;0.20;99.90;;;;;;4947075;29;20491;-63
2024/01/30 01:58:01;;;;;;;9.57;8.45;;;0.20;99.90;;;;;;4946510;28;20054;-61
2024/01/30 02:00:27;;;;;;;13.20;8.77;;;0.20;99.90;;;;;;4941564;28;20055;-63
2024/01/30 02:02:54;;;;;;;12.02;8.13;;;0.20;99.90;;;;;;4959408;28;20047;-63
2024/01/30 02:05:20;;;;;;;10.32;7.15;;;0.20;99.90;;;;;;4947519;28;20038;-61
2024/01/30 02:07:46;;;;;;;11.60;8.40;;;0.20;99.90;;;;;;4948963;28;20090;-64
2024/01/30 02:10:12;;;;;;;8.98;7.65;;;0.10;99.90;;;;;;4944089;28;20027;-61
2024/01/30 02:12:38;;;;;;;12.18;7.43;;;0.10;99.90;;;;;;4944982;28;20035;-61
2024/01/30 02:15:04;;;;;;;9.65;8.32;;;0.10;99.90;;;;;;4946806;28;20039;-62
2024/01/30 02:17:30;;;;;;;9.65;7.88;;;0.10;99.90;;;;;;4948802;28;20550;-61
2024/01/30 02:19:56;;;;;;;11.25;7.30;;;0.10;99.90;;;;;;4954868;28;20031;-62
2024/01/30 02:22:22;;;;;;;8.63;6.80;;;0.10;99.90;;;;;;4946735;28;20028;-61
2024/01/30 02:24:48;;;;;;;12.32;8.27;;;0.10;99.90;;;;;;4944818;28;20546;-63
2024/01/30 02:27:13;;;;;;;11.02;7.13;;;0.10;99.90;;;;;;4947251;28;20114;-62
2024/01/30 02:29:39;;;;;;;13.90;8.13;;;0.10;99.90;;;;;;4951298;28;20108;-63
2024/01/30 02:32:06;;;;;;;10.10;7.38;;;0.10;99.90;;;;;;4949383;28;20547;-61
2024/01/30 02:34:31;;;;;;;13.10;7.57;;;0.10;99.90;;;;;;4947702;28;20036;-63
2024/01/30 02:36:57;;;;;;;9.20;7.38;;;0.10;99.90;;;;;;4939121;28;20031;-62
2024/01/30 02:39:23;;;;;;;9.55;7.28;;;0.20;99.90;;;;;;4948795;28;20769;-61
2024/01/30 02:41:48;;;;;;;12.38;8.13;;;0.20;99.90;;;;;;4944982;28;20038;-63
2024/01/30 02:44:14;;;;;;;10.80;7.63;;;0.20;99.90;;;;;;4948183;28;20032;-62
2024/01/30 02:46:40;;;;;;;10.98;7.75;;;0.10;99.90;;;;;;4948629;28;20023;-61
2024/01/30 02:49:05;;;;;;;11.50;7.60;;;0.10;99.90;;;;;;4947181;28;20042;-61
2024/01/30 02:51:31;;;;;;;12.55;8.10;;;0.10;99.90;;;;;;4948837;28;20503;-61
2024/01/30 02:53:57;;;;;;;10.57;8.23;;;0.10;99.90;;;;;;4951472;28;20077;-62
2024/01/30 02:56:22;;;;;;;11.73;7.70;;;0.00;99.90;;;;;;4949742;28;20031;-63
2024/01/30 02:58:48;;;;;;;11.75;7.88;;;0.00;99.90;;;;;;4946700;28;20443;-63
2024/01/30 03:01:13;;;;;;;8.68;7.78;;;0.00;99.90;;;;;;4947388;28;20043;-62
2024/01/30 03:03:40;;;;;;;10.98;7.85;;;0.10;99.90;;;;;;4948808;28;20499;-62
2024/01/30 03:06:06;;;;;;;9.70;8.00;;;0.00;99.90;;;;;;4947474;28;20803;-61
2024/01/30 03:08:34;;;;;;;10.38;8.23;;;0.10;99.90;;;;;;4948256;28;20035;-64
2024/01/30 03:11:00;;;;;;;13.35;8.50;;;0.00;99.90;;;;;;4947395;28;20033;-61
2024/01/30 03:13:25;;;;;;;14.57;8.30;;;0.00;99.90;;;;;;4950219;28;20027;-62
2024/01/30 03:15:51;;;;;;;9.18;7.43;;;0.00;99.90;;;;;;4950385;28;20054;-62
2024/01/30 03:18:17;;;;;;;13.57;8.38;;;-0.10;99.90;;;;;;4949920;28;20066;-62
2024/01/30 03:20:43;;;;;;;12.18;8.32;;;0.00;99.90;;;;;;4950469;28;20497;-63
2024/01/30 03:23:09;;;;;;;13.70;8.75;;;0.00;99.90;;;;;;4948629;28;20111;-61
2024/01/30 03:25:34;;;;;;;8.75;7.60;;;0.00;99.90;;;;;;4949398;28;20023;-61
2024/01/30 03:28:00;;;;;;;12.13;7.50;;;0.00;99.90;;;;;;4946288;28;20035;-62
2024/01/30 03:30:26;;;;;;;14.73;9.93;;;0.00;99.90;;;;;;4949202;28;20753;-63
2024/01/30 03:32:52;;;;;;;11.05;8.70;;;0.00;99.90;;;;;;4950218;28;20398;-62
2024/01/30 03:35:19;;;;;;;11.43;8.75;;;-0.10;99.90;;;;;;4956312;28;20039;-61
2024/01/30 03:37:44;;;;;;;10.20;7.93;;;-0.10;99.90;;;;;;4945111;28;20027;-61
2024/01/30 03:40:11;;;;;;;15.48;10.80;;;-0.10;99.90;;;;;;4952895;28;20419;-62
2024/01/30 03:42:36;;;;;;;10.85;8.55;;;-0.10;99.90;;;;;;4951448;28;20087;-63
2024/01/30 03:45:02;;;;;;;12.25;9.02;;;-0.10;99.90;;;;;;4951000;28;20036;-62
2024/01/30 03:47:28;;;;;;;15.50;8.65;;;-0.10;99.90;;;;;;4948924;28;20114;-62
2024/01/30 03:49:54;;;;;;;12.15;8.60;;;-0.10;99.90;;;;;;4950289;28;20110;-61
2024/01/30 03:52:19;;;;;;;10.23;8.55;;;0.00;99.90;;;;;;4947726;28;20122;-62
2024/01/30 03:54:45;;;;;;;10.48;9.10;;;0.00;99.90;;;;;;4949001;28;20031;-62
2024/01/30 03:57:11;;;;;;;8.82;7.93;;;0.10;99.90;;;;;;4948298;28;20082;-62
2024/01/30 03:59:36;;;;;;;13.00;9.80;;;0.10;99.90;;;;;;4945937;28;20031;-62
2024/01/30 04:02:02;;;;;;;15.40;9.32;;;0.10;99.90;;;;;;4941445;29;20015;-61
2024/01/30 04:04:28;;;;;;;10.10;7.65;;;0.10;99.90;;;;;;4941890;28;20086;-63
2024/01/30 04:06:53;;;;;;;13.25;7.75;;;0.10;99.90;;;;;;4949645;28;20043;-63
2024/01/30 04:09:19;;;;;;;12.18;8.65;;;0.00;99.90;;;;;;4949178;28;20023;-62
2024/01/30 04:11:45;;;;;;;16.10;8.23;;;-0.10;99.90;;;;;;4950870;28;20084;-63
2024/01/30 04:14:10;;;;;;;12.15;8.85;;;-0.10;99.90;;;;;;4943547;28;20050;-61
2024/01/30 04:16:36;;;;;;;15.68;10.23;;;-0.10;99.90;;;;;;4951233;28;20019;-65
2024/01/30 04:19:02;;;;;;;40.20;15.43;;;-0.20;99.90;;;;;;4951201;28;20135;-62
2024/01/30 04:21:27;;;;;;;15.63;10.27;;;-0.20;99.90;;;;;;4951793;28;20032;-62
2024/01/30 04:23:53;;;;;;;9.68;8.48;;;-0.20;99.90;;;;;;4949680;28;20078;-62
2024/01/30 04:26:19;;;;;;;16.08;9.68;;;-0.20;99.90;;;;;;4947721;28;20027;-63
2024/01/30 04:28:45;;;;;;;31.05;14.45;;;-0.20;99.90;;;;;;4944888;28;20022;-62
2024/01/30 04:31:11;;;;;;;23.13;12.27;;;-0.30;99.90;;;;;;4946545;28;20423;-61
2024/01/30 04:33:36;;;;;;;13.63;10.10;;;-0.30;99.90;;;;;;4948282;28;20515;-63
2024/01/30 04:36:03;;;;;;;16.15;10.27;;;-0.30;99.90;;;;;;4945066;28;20031;-63
2024/01/30 04:38:29;;;;;;;12.43;9.30;;;-0.30;99.90;;;;;;4947491;28;20086;-61
2024/01/30 04:40:55;;;;;;;13.18;9.40;;;-0.30;99.90;;;;;;4950304;28;20035;-62
2024/01/30 04:43:21;;;;;;;15.55;9.65;;;-0.40;99.90;;;;;;4949282;28;20035;-62
2024/01/30 04:45:47;;;;;;;13.55;9.20;;;-0.40;99.90;;;;;;4949543;28;20110;-62
2024/01/30 04:48:13;;;;;;;12.77;9.98;;;-0.40;99.90;;;;;;4947847;28;20114;-63
2024/01/30 04:50:39;;;;;;;13.60;10.93;;;-0.40;99.90;;;;;;4949288;28;20567;-62
2024/01/30 04:53:04;;;;;;;11.95;9.95;;;-0.50;99.90;;;;;;4951561;28;20116;-61
2024/01/30 04:55:30;;;;;;;16.65;9.60;;;-0.50;99.90;;;;;;4950935;28;20042;-62
2024/01/30 04:57:55;;;;;;;13.73;9.95;;;-0.60;99.90;;;;;;4950307;28;20044;-63
2024/01/30 05:00:21;;;;;;;16.42;10.70;;;-0.60;99.90;;;;;;4958418;28;20071;-62
2024/01/30 05:02:47;;;;;;;13.48;9.27;;;-0.60;99.90;;;;;;4948815;28;20031;-62
2024/01/30 05:05:13;;;;;;;16.27;10.90;;;-0.60;99.90;;;;;;4948329;28;20578;-62
2024/01/30 05:07:41;;;;;;;11.18;9.70;;;-0.60;99.90;;;;;;4946122;28;20074;-62
2024/01/30 05:10:06;;;;;;;19.13;10.48;;;-0.70;99.90;;;;;;4950625;28;20043;-63
2024/01/30 05:12:32;;;;;;;15.82;10.05;;;-0.60;99.90;;;;;;4948586;28;20309;-64
2024/01/30 05:14:58;;;;;;;13.82;9.68;;;-0.60;99.90;;;;;;4945344;28;20551;-62
2024/01/30 05:17:23;;;;;;;13.40;9.05;;;-0.60;99.90;;;;;;4946145;28;20027;-63
2024/01/30 05:19:49;;;;;;;17.63;11.73;;;-0.60;99.90;;;;;;4945878;28;20038;-62
2024/01/30 05:22:15;;;;;;;19.95;11.15;;;-0.50;99.90;;;;;;4945155;28;20407;-63
2024/01/30 05:24:42;;;;;;;17.77;9.90;;;-0.50;99.90;;;;;;4948252;28;20023;-61
2024/01/30 05:27:08;;;;;;;16.23;9.60;;;-0.40;99.90;;;;;;4947082;28;20098;-62
2024/01/30 05:29:34;;;;;;;13.43;10.48;;;-0.30;99.90;;;;;;4963327;28;20716;-62
2024/01/30 05:31:59;;;;;;;13.48;9.82;;;-0.30;99.90;;;;;;4955356;28;20436;-61
2024/01/30 05:34:25;;;;;;;14.93;10.13;;;-0.20;99.90;;;;;;4928398;29;20027;-62
2024/01/30 05:36:50;;;;;;;13.80;10.60;;;0.00;99.90;;;;;;4937134;28;20041;-59
2024/01/30 05:39:16;;;;;;;14.25;10.65;;;0.10;99.90;;;;;;4943910;28;20027;-62
2024/01/30 05:41:42;;;;;;;15.02;10.82;;;0.20;99.90;;;;;;4944696;28;20051;-62
2024/01/30 05:44:07;;;;;;;16.90;10.25;;;0.30;99.90;;;;;;4947381;28;20098;-61
2024/01/30 05:46:35;;;;;;;12.15;10.88;;;0.30;99.90;;;;;;4946082;28;20484;-64
2024/01/30 05:49:00;;;;;;;18.65;10.65;;;0.30;99.90;;;;;;4954323;28;20059;-61
2024/01/30 05:51:27;;;;;;;12.95;10.57;;;0.40;99.90;;;;;;4956410;28;20073;-63
2024/01/30 05:53:53;;;;;;;12.93;10.38;;;0.40;99.90;;;;;;4952197;28;20043;-61
2024/01/30 05:56:19;;;;;;;15.13;10.77;;;0.50;99.90;;;;;;4953803;28;20046;-61
2024/01/30 05:58:44;;;;;;;18.77;11.52;;;0.50;99.90;;;;;;4952983;28;20054;-61
2024/01/30 06:01:10;;;;;;;18.52;11.48;;;0.50;99.90;;;;;;4951859;28;20031;-62
2024/01/30 06:03:36;;;;;;;14.13;11.18;;;0.50;99.90;;;;;;4952397;28;20451;-61
2024/01/30 06:06:01;;;;;;;14.75;11.60;;;0.50;99.90;;;;;;4951768;28;20146;-61
2024/01/30 06:08:27;;;;;;;17.35;11.68;;;0.60;99.90;;;;;;4951159;28;20487;-62
2024/01/30 06:10:52;;;;;;;15.15;10.98;;;0.60;99.90;;;;;;4952879;28;20503;-61
2024/01/30 06:13:18;;;;;;;15.38;11.38;;;0.60;99.90;;;;;;4953420;28;20506;-63
2024/01/30 06:15:44;;;;;;;18.65;11.88;;;0.60;99.90;;;;;;4955309;28;20049;-62
2024/01/30 06:18:09;;;;;;;16.10;11.07;;;0.60;99.90;;;;;;4948504;28;20046;-62
2024/01/30 06:20:35;;;;;;;16.50;11.55;;;0.70;99.90;;;;;;4951552;28;20804;-61
2024/01/30 06:23:01;;;;;;;14.30;10.32;;;0.70;99.90;;;;;;4952629;28;20494;-61
2024/01/30 06:25:27;;;;;;;14.15;10.80;;;0.80;99.90;;;;;;4953485;28;20118;-62
2024/01/30 06:27:52;;;;;;;16.88;9.95;;;0.80;99.90;;;;;;4953606;28;20062;-62
2024/01/30 06:30:18;;;;;;;14.32;10.68;;;0.90;99.90;;;;;;4954473;28;20027;-60
2024/01/30 06:32:44;;;;;;;14.80;11.35;;;0.90;99.90;;;;;;4953083;28;20035;-62
2024/01/30 06:35:10;;;;;;;15.70;11.27;;;0.90;99.90;;;;;;4957746;28;20035;-61
2024/01/30 06:37:36;;;;;;;13.85;10.77;;;0.90;99.90;;;;;;4952826;28;20022;-60
2024/01/30 06:40:04;;;;;;;18.58;11.80;;;1.00;99.90;;;;;;4950429;28;20038;-62
2024/01/30 06:42:30;;;;;;;15.75;10.75;;;0.90;99.90;;;;;;4951732;28;20027;-62
2024/01/30 06:44:56;;;;;;;15.57;11.02;;;1.00;99.90;;;;;;4951466;28;20042;-62
2024/01/30 06:47:21;;;;;;;19.75;11.40;;;1.00;99.90;;;;;;4959707;28;20411;-62
2024/01/30 06:49:47;;;;;;;12.75;10.80;;;1.00;99.90;;;;;;4948914;28;20028;-62
2024/01/30 06:52:12;;;;;;;16.15;11.07;;;1.00;99.90;;;;;;4949708;28;20036;-62
2024/01/30 06:54:39;;;;;;;16.65;11.30;;;1.00;99.90;;;;;;4950065;28;20036;-63
2024/01/30 06:57:08;;;;;;;19.30;11.70;;;1.10;99.90;;;;;;4950461;28;20046;-62
2024/01/30 06:59:34;;;;;;;16.80;10.75;;;1.00;99.90;;;;;;4961658;28;20517;-62
2024/01/30 07:02:00;;;;;;;17.02;11.75;;;1.00;99.90;;;;;;4947937;28;20063;-62
2024/01/30 07:04:28;;;;;;;15.63;11.18;;;1.00;99.90;;;;;;4948773;28;20451;-62
2024/01/30 07:06:54;;;;;;;15.90;10.93;;;0.90;99.90;;;;;;4948415;28;20514;-62
2024/01/30 07:09:20;;;;;;;18.95;11.43;;;0.90;99.90;;;;;;4951101;28;20027;-64
2024/01/30 07:11:45;;;;;;;16.23;10.93;;;0.80;99.90;;;;;;4951293;28;20054;-62
2024/01/30 07:14:11;;;;;;;19.35;11.70;;;0.80;99.90;;;;;;4951328;28;20572;-63
2024/01/30 07:16:36;;;;;;;20.90;11.38;;;0.80;99.90;;;;;;4952970;28;20453;-62
2024/01/30 07:19:02;;;;;;;16.13;10.90;;;0.70;99.90;;;;;;4953089;28;20031;-64
2024/01/30 07:21:28;;;;;;;17.25;11.52;;;0.70;99.90;;;;;;4946770;28;20034;-63
2024/01/30 07:23:57;;;;;;;18.55;11.50;;;0.80;99.90;;;;;;4938247;28;20407;-62
2024/01/30 07:26:23;;;;;;;21.35;12.55;;;0.80;99.90;;;;;;4946987;28;20070;-63
2024/01/30 07:28:50;;;;;;;17.48;11.63;;;0.80;99.90;;;;;;4953052;28;20066;-62
2024/01/30 07:31:15;;;;;;;14.18;11.20;;;0.90;99.90;;;;;;4950572;28;20040;-64
2024/01/30 07:33:41;;;;;;;14.13;10.93;;;0.90;99.90;;;;;;4934603;28;20031;-63
2024/01/30 07:36:07;;;;;;;20.50;13.05;;;1.00;99.90;;;;;;4937343;28;20515;-63
2024/01/30 07:38:33;;;;;;;17.40;12.27;;;1.00;99.90;;;;;;4947692;28;20036;-64
2024/01/30 07:40:58;;;;;;;18.55;11.98;;;1.10;99.90;;;;;;4934420;28;20047;-63
2024/01/30 07:43:24;;;;;;;21.70;11.90;;;1.20;99.90;;;;;;4952252;28;20059;-62
2024/01/30 07:45:50;;;;;;;16.65;12.43;;;1.20;99.90;;;;;;4952631;28;20085;-63
2024/01/30 07:48:15;;;;;;;21.23;12.25;;;1.30;99.90;;;;;;4947752;28;20040;-63
2024/01/30 07:50:41;;;;;;;17.33;13.00;;;1.40;99.90;;;;;;4938571;28;20035;-63
2024/01/30 07:53:07;;;;;;;21.48;12.57;;;1.40;99.90;;;;;;4938774;28;20039;-64
2024/01/30 07:55:32;;;;;;;21.88;13.00;;;1.50;99.90;;;;;;4951593;28;20065;-64
2024/01/30 07:58:01;;;;;;;26.83;13.48;;;1.60;99.90;;;;;;4951404;28;20235;-62
2024/01/30 08:00:28;;;;;;;17.33;12.93;;;1.70;99.90;;;;;;4947892;28;20063;-62
2024/01/30 08:02:55;;;;;;;19.63;12.90;;;1.70;99.90;;;;;;4942566;28;20028;-62
2024/01/30 08:05:22;;;;;;;18.73;13.57;;;1.80;99.90;;;;;;4938850;28;20083;-62
2024/01/30 08:07:48;;;;;;;19.92;12.85;;;1.80;99.90;;;;;;4948731;28;20039;-63
2024/01/30 08:10:14;;;;;;;20.55;13.73;;;1.90;99.90;;;;;;4929172;28;20416;-63
2024/01/30 08:12:41;;;;;;;23.98;14.35;;;1.90;99.90;;;;;;4944245;28;20034;-63
2024/01/30 08:15:07;;;;;;;19.92;13.63;;;2.00;99.90;;;;;;4943911;28;20067;-63
2024/01/30 08:17:33;;;;;;;22.27;14.90;;;2.00;99.90;;;;;;4933906;28;20039;-63
2024/01/30 08:19:58;;;;;;;20.45;13.68;;;2.10;99.90;;;;;;4950491;28;20034;-62
2024/01/30 08:22:24;;;;;;;22.52;14.10;;;2.10;99.90;;;;;;4950201;28;20028;-62
2024/01/30 08:24:50;;;;;;;25.60;14.50;;;2.20;99.90;;;;;;4948972;28;20027;-62
2024/01/30 08:27:15;;;;;;;22.42;14.23;;;2.30;99.90;;;;;;4949189;28;20054;-63
2024/01/30 08:29:41;;;;;;;23.95;14.73;;;2.30;99.90;;;;;;4950971;28;20035;-62
2024/01/30 08:32:07;;;;;;;22.15;13.88;;;2.40;99.90;;;;;;4948816;28;20078;-63
2024/01/30 08:34:33;;;;;;;20.42;14.32;;;2.40;99.90;;;;;;4948984;28;20027;-63
2024/01/30 08:36:59;;;;;;;24.55;14.90;;;2.40;99.90;;;;;;4946879;28;20023;-63
2024/01/30 08:39:24;;;;;;;22.92;14.55;;;2.40;99.90;;;;;;4946704;28;20035;-62
2024/01/30 08:41:50;;;;;;;19.00;13.73;;;2.50;99.90;;;;;;4949402;28;20038;-63
2024/01/30 08:44:17;;;;;;;19.75;14.38;;;2.50;99.90;;;;;;4950054;28;20072;-63
2024/01/30 08:46:43;;;;;;;24.13;16.30;;;2.60;99.90;;;;;;4950995;28;20455;-62
2024/01/30 08:49:09;;;;;;;25.50;16.17;;;2.70;99.90;;;;;;4954370;28;20038;-62
2024/01/30 08:51:34;;;;;;;19.95;14.52;;;2.80;99.90;;;;;;4952001;28;20027;-62
2024/01/30 08:54:01;;;;;;;28.08;15.35;;;2.90;99.90;;;;;;4954404;28;20042;-63
2024/01/30 08:56:27;;;;;;;24.00;15.43;;;3.10;99.90;;;;;;4949837;28;20062;-63
2024/01/30 08:58:52;;;;;;;30.48;15.10;;;3.20;99.90;;;;;;4952254;28;20066;-64
2024/01/30 09:01:18;;;;;;;20.05;14.10;;;3.20;99.90;;;;;;4947398;28;20058;-63
2024/01/30 09:03:45;;;;;;;22.65;15.52;;;3.40;99.90;;;;;;4951064;28;20487;-62
2024/01/30 09:06:11;;;;;;;20.17;14.68;;;3.50;99.90;;;;;;4944570;28;20523;-63
2024/01/30 09:08:37;;;;;;;22.92;14.50;;;3.60;99.90;;;;;;4947153;28;20027;-62
2024/01/30 09:11:13;;;;;;;25.75;14.55;;;3.60;99.90;;;;;;4948800;28;20395;-62
2024/01/30 09:13:39;;;;;;;20.83;15.55;;;3.60;99.90;;;;;;4948896;28;20047;-62
2024/01/30 09:16:06;;;;;;;23.42;15.60;;;3.70;99.90;;;;;;4949650;28;20059;-62
2024/01/30 09:18:31;;;;;;;22.63;15.43;;;3.80;99.90;;;;;;4948277;28;20432;-62
2024/01/30 09:20:58;;;;;;;19.70;14.77;;;3.90;99.90;;;;;;4950131;28;20154;-62
2024/01/30 09:23:24;;;;;;;27.35;15.43;;;4.00;99.90;;;;;;4945266;28;20151;-63
2024/01/30 09:25:50;;;;;;;20.83;15.27;;;4.10;99.90;;;;;;4946287;29;20077;-61
2024/01/30 09:28:17;;;;;;;25.98;15.60;;;4.20;99.90;;;;;;4947828;28;20703;-62
2024/01/30 09:30:43;;;;;;;25.45;17.25;;;4.30;99.90;;;;;;4946584;28;20118;-63
2024/01/30 09:33:09;;;;;;;22.73;16.20;;;4.40;99.90;;;;;;4951672;28;20114;-63
2024/01/30 09:35:36;;;;;;;20.08;14.02;;;4.50;99.90;;;;;;4949944;28;20495;-64
2024/01/30 09:38:02;;;;;;;22.20;16.45;;;4.50;99.90;;;;;;4946048;28;20535;-62
2024/01/30 09:40:28;;;;;;;25.75;15.07;;;4.60;99.90;;;;;;4947131;28;20019;-63
2024/01/30 09:42:54;;;;;;;29.38;15.95;;;4.80;99.90;;;;;;4950775;28;20031;-62
2024/01/30 09:45:25;;;;;;;21.27;14.25;;;4.70;99.90;;;;;;4951232;28;20035;-64
2024/01/30 09:47:51;;;;;;;22.87;14.90;;;4.70;99.90;;;;;;4952029;28;20479;-62
2024/01/30 09:50:17;;;;;;;19.48;15.07;;;4.70;99.90;;;;;;4952934;28;20055;-63
2024/01/30 09:52:47;;;;;;;23.25;16.30;;;4.50;99.90;;;;;;4954448;28;20039;-63
2024/01/30 09:55:13;;;;;;;21.08;14.77;;;4.50;99.90;;;;;;4951552;28;20034;-63
2024/01/30 09:57:41;;;;;;;24.48;15.23;;;4.40;99.90;;;;;;4955620;28;20031;-63
2024/01/30 10:00:09;;;;;;;23.52;17.13;;;4.30;99.90;;;;;;4953847;28;20026;-63
2024/01/30 10:02:36;;;;;;;23.35;16.50;;;4.30;99.90;;;;;;4955793;28;20038;-64
2024/01/30 10:05:02;;;;;;;18.17;15.55;;;4.30;99.90;;;;;;4962730;28;20423;-62
2024/01/30 10:07:27;;;;;;;26.13;15.55;;;4.40;99.90;;;;;;4949302;28;20098;-64
2024/01/30 10:09:56;;;;;;;23.17;14.70;;;4.40;99.90;;;;;;4951620;28;20048;-63
2024/01/30 10:12:22;;;;;;;22.95;15.55;;;4.40;99.90;;;;;;4952011;28;20031;-63
2024/01/30 10:14:47;;;;;;;24.77;15.50;;;4.40;99.90;;;;;;4959553;28;20474;-63
2024/01/30 10:17:13;;;;;;;22.17;15.32;;;4.40;99.90;;;;;;4953167;28;20607;-64
2024/01/30 10:19:40;;;;;;;19.45;15.30;;;4.50;99.90;;;;;;4947488;28;20111;-63
2024/01/30 10:22:06;;;;;;;24.55;17.15;;;4.50;99.90;;;;;;4954781;28;20031;-63
2024/01/30 10:24:34;;;;;;;25.85;16.35;;;4.60;99.90;;;;;;4958491;28;20039;-62
2024/01/30 10:26:59;;;;;;;22.02;16.05;;;4.60;99.90;;;;;;4959308;28;20028;-62
2024/01/30 10:29:25;;;;;;;21.40;14.65;;;4.60;99.90;;;;;;4957614;28;20034;-62
2024/01/30 10:32:03;;;;;;;30.67;16.25;;;4.70;99.90;;;;;;4945864;28;20020;-62
2024/01/30 10:34:29;;;;;;;18.70;14.63;;;4.70;99.90;;;;;;4947709;28;20039;-62
2024/01/30 10:37:12;;;;;;;32.35;16.02;;;4.70;99.90;;;;;;4947923;28;20498;-62
2024/01/30 10:39:39;;;;;;;22.67;15.48;;;4.70;99.90;;;;;;4948621;28;20082;-62
2024/01/30 10:42:05;;;;;;;27.92;16.92;;;4.80;99.90;;;;;;4948568;28;20035;-63
2024/01/30 10:44:39;;;;;;;20.10;16.23;;;4.80;99.90;;;;;;4949553;28;20016;-64
2024/01/30 10:47:11;;;;;;;24.95;16.20;;;4.90;99.90;;;;;;4951306;28;20549;-62
2024/01/30 10:49:37;;;;;;;22.60;16.23;;;5.00;99.90;;;;;;4949786;28;20085;-63
2024/01/30 10:52:05;;;;;;;21.85;16.50;;;5.00;99.90;;;;;;4946520;28;20500;-64
2024/01/30 10:54:32;;;;;;;25.52;15.55;;;5.10;99.90;;;;;;4947627;28;20111;-62
2024/01/30 10:57:01;;;;;;;21.63;15.40;;;5.10;99.90;;;;;;4945649;28;20042;-63
2024/01/30 10:59:28;;;;;;;20.05;14.85;;;5.10;99.90;;;;;;4945673;28;20700;-63
2024/01/30 11:01:54;;;;;;;21.40;15.73;;;5.10;99.90;;;;;;4947236;28;20475;-62
2024/01/30 11:04:20;;;;;;;22.58;15.48;;;5.10;99.90;;;;;;4947264;28;20038;-63
2024/01/30 11:06:49;;;;;;;22.33;15.82;;;5.20;99.90;;;;;;4947353;28;20031;-64
2024/01/30 11:09:17;;;;;;;23.75;15.32;;;5.20;99.90;;;;;;4948826;28;20388;-64
2024/01/30 11:12:01;;;;;;;22.85;15.27;;;5.30;99.90;;;;;;4949391;28;20031;-63
2024/01/30 11:14:29;;;;;;;16.92;13.35;;;5.40;99.90;;;;;;4950896;28;20043;-62
2024/01/30 11:16:58;;;;;;;22.98;15.95;;;5.30;99.90;;;;;;4948707;28;20102;-63
2024/01/30 11:19:30;;;;;;;20.85;15.73;;;5.40;99.90;;;;;;4948731;28;20047;-63
2024/01/30 11:21:59;;;;;;;18.73;14.63;;;5.50;99.90;;;;;;4951398;28;20106;-62
2024/01/30 11:24:25;;;;;;;23.13;15.57;;;5.40;99.90;;;;;;4954228;28;20107;-62
2024/01/30 11:26:57;;;;;;;26.50;15.93;;;5.40;99.90;;;;;;4950728;28;20867;-62
2024/01/30 11:29:29;;;;;;;23.77;15.30;;;5.40;99.90;;;;;;4951344;28;20119;-62
2024/01/30 11:31:58;;;;;;;21.30;15.45;;;5.50;99.90;;;;;;4947901;28;20026;-62
2024/01/30 11:34:24;;;;;;;26.85;16.20;;;5.60;99.90;;;;;;4951631;28;20035;-63
2024/01/30 11:37:01;;;;;;;23.73;14.85;;;5.60;99.90;;;;;;4950642;28;20509;-64
2024/01/30 11:39:26;;;;;;;20.73;15.38;;;5.60;99.90;;;;;;4948105;28;20027;-64
2024/01/30 11:41:53;;;;;;;24.80;15.60;;;5.70;99.90;;;;;;4947246;28;20027;-63
2024/01/30 11:44:24;;;;;;;28.23;16.27;;;5.70;99.90;;;;;;4947269;28;20031;-63
2024/01/30 11:46:51;;;;;;;20.42;14.43;;;5.70;99.90;;;;;;4950513;28;20078;-63
2024/01/30 11:49:17;;;;;;;20.33;15.30;;;5.80;99.90;;;;;;4954229;28;20031;-63
2024/01/30 11:51:45;;;;;;;22.75;15.80;;;5.90;99.90;;;;;;4956734;28;20525;-63
2024/01/30 11:54:11;;;;;;;20.40;15.43;;;5.80;99.90;;;;;;4949352;28;20038;-63
2024/01/30 11:56:38;;;;;;;18.67;14.02;;;5.90;99.90;;;;;;4946640;28;20032;-63
2024/01/30 11:59:04;;;;;;;21.17;14.50;;;5.90;99.90;;;;;;4941934;28;20049;-63
2024/01/30 12:01:31;;;;;;;23.13;14.93;;;6.00;99.90;;;;;;4949125;28;20010;-63
2024/01/30 12:03:58;;;;;;;22.27;15.13;;;6.00;99.90;;;;;;4955133;28;20090;-62
2024/01/30 12:06:23;;;;;;;20.40;14.55;;;6.00;99.90;;;;;;4947327;28;20038;-62
2024/01/30 12:08:59;;;;;;;23.13;15.18;;;6.10;99.90;;;;;;4939619;28;20032;-62
2024/01/30 12:11:25;;;;;;;19.10;14.75;;;6.10;99.90;;;;;;4942120;28;20054;-64
2024/01/30 12:13:53;;;;;;;19.98;15.40;;;6.10;99.90;;;;;;4954831;28;20062;-64
2024/01/30 12:16:19;;;;;;;20.67;15.48;;;6.20;99.90;;;;;;4947903;28;20028;-62
2024/01/30 12:18:44;;;;;;;19.08;14.68;;;6.30;99.90;;;;;;4949076;28;20387;-61
2024/01/30 12:21:10;;;;;;;20.65;15.27;;;6.20;99.90;;;;;;4947617;28;20053;-63
2024/01/30 12:23:36;;;;;;;22.85;13.80;;;6.10;99.90;;;;;;4947503;28;20027;-64
2024/01/30 12:26:07;;;;;;;19.75;13.70;;;6.10;99.90;;;;;;4950658;28;20035;-62
2024/01/30 12:28:33;;;;;;;17.55;13.55;;;6.10;99.90;;;;;;4950284;28;20019;-63
2024/01/30 12:31:03;;;;;;;21.05;14.32;;;6.10;99.90;;;;;;4948848;28;20070;-62
2024/01/30 12:33:29;;;;;;;18.50;14.13;;;6.20;99.90;;;;;;4945773;28;20031;-62
2024/01/30 12:35:56;;;;;;;24.60;14.93;;;6.20;99.90;;;;;;4947384;28;20050;-63